createdAt,value
2017-10-09T00:01:55.892Z,7.10
2017-10-09T00:04:24.466Z,6.90
2017-10-09T00:06:53.192Z,7.80
2017-10-09T00:09:21.580Z,6.40
2017-10-09T00:11:50.176Z,6.70
2017-10-09T00:14:19.340Z,7.50
2017-10-09T00:16:47.759Z,8.43
2017-10-09T00:19:16.950Z,8.10
2017-10-09T00:21:46.277Z,7.67
2017-10-09T00:24:14.833Z,7.97
2017-10-09T00:26:43.975Z,8.50
2017-10-09T00:29:12.527Z,8.40
2017-10-09T00:31:40.996Z,7.30
2017-10-09T00:34:10.191Z,7.30
2017-10-09T00:36:39.597Z,7.40
2017-10-09T00:39:07.986Z,6.00
2017-10-09T00:41:37.166Z,6.27
2017-10-09T00:44:06.455Z,6.60
2017-10-09T00:46:35.020Z,7.20
2017-10-09T00:49:03.405Z,6.97
2017-10-09T00:51:32.142Z,7.00
2017-10-09T00:54:00.512Z,6.30
2017-10-09T00:56:29.006Z,7.13
2017-10-09T00:58:57.543Z,7.13
2017-10-09T01:01:25.939Z,6.43
2017-10-09T01:03:54.359Z,6.43
2017-10-09T01:06:23.152Z,6.30
2017-10-09T01:08:51.518Z,7.63
2017-10-09T01:11:19.936Z,7.93
2017-10-09T01:13:49.130Z,7.97
2017-10-09T01:16:17.503Z,8.20
2017-10-09T01:18:45.942Z,9.37
2017-10-09T01:21:14.404Z,14.37
2017-10-09T01:23:43.855Z,14.40
2017-10-09T01:26:12.235Z,11.83
2017-10-09T01:28:41.428Z,18.40
2017-10-09T01:31:09.892Z,33.47
2017-10-09T01:33:38.344Z,21.57
2017-10-09T01:36:07.651Z,23.47
2017-10-09T01:38:36.016Z,27.17
2017-10-09T01:41:04.422Z,21.23
2017-10-09T01:43:32.940Z,39.03
2017-10-09T01:46:01.351Z,25.53
2017-10-09T01:48:30.106Z,20.97
2017-10-09T01:50:58.515Z,20.23
2017-10-09T01:53:26.911Z,29.60
2017-10-09T01:55:56.062Z,16.20
2017-10-09T01:58:24.484Z,20.37
2017-10-09T02:00:52.930Z,18.83
2017-10-09T02:03:21.318Z,20.97
2017-10-09T02:05:49.721Z,22.87
2017-10-09T02:08:19.109Z,23.90
2017-10-09T02:10:48.279Z,18.20
2017-10-09T02:13:16.788Z,23.13
2017-10-09T02:15:45.169Z,41.63
2017-10-09T02:18:13.563Z,26.57
2017-10-09T02:20:42.056Z,31.80
2017-10-09T02:23:11.218Z,22.27
2017-10-09T02:25:39.939Z,15.53
2017-10-09T02:28:08.588Z,22.40
2017-10-09T02:30:37.065Z,15.97
2017-10-09T02:33:05.955Z,14.00
2017-10-09T02:35:34.375Z,23.10
2017-10-09T02:38:03.526Z,22.83
2017-10-09T02:40:32.022Z,12.00
2017-10-09T02:43:01.410Z,19.70
2017-10-09T02:45:29.761Z,15.23
2017-10-09T02:47:58.190Z,27.30
2017-10-09T02:50:26.748Z,15.77
2017-10-09T02:52:55.157Z,17.97
2017-10-09T02:55:23.562Z,18.23
2017-10-09T02:57:51.995Z,18.63
2017-10-09T03:00:20.461Z,15.50
2017-10-09T03:02:48.896Z,24.50
2017-10-09T03:05:17.405Z,19.57
2017-10-09T03:07:45.886Z,26.53
2017-10-09T03:10:14.624Z,24.23
2017-10-09T03:12:43.193Z,20.63
2017-10-09T03:15:11.647Z,22.30
2017-10-09T03:17:40.081Z,22.57
2017-10-09T03:20:08.630Z,20.27
2017-10-09T03:22:39.783Z,37.57
2017-10-09T03:25:14.814Z,17.53
2017-10-09T03:27:49.267Z,25.30
2017-10-09T03:30:18.457Z,19.80
2017-10-09T03:32:46.859Z,12.87
2017-10-09T03:35:15.230Z,15.80
2017-10-09T03:37:43.800Z,23.37
2017-10-09T03:40:12.985Z,27.17
2017-10-09T03:42:41.492Z,26.63
2017-10-09T03:45:10.688Z,17.07
2017-10-09T03:47:39.060Z,19.57
2017-10-09T03:50:08.555Z,12.57
2017-10-09T03:52:38.164Z,22.33
2017-10-09T03:55:07.315Z,13.30
2017-10-09T03:57:35.750Z,16.77
2017-10-09T04:00:04.936Z,15.17
2017-10-09T04:02:34.076Z,17.27
2017-10-09T04:05:02.457Z,15.47
2017-10-09T04:07:31.019Z,17.47
2017-10-09T04:09:59.397Z,14.23
2017-10-09T04:12:28.002Z,24.57
2017-10-09T04:14:56.731Z,17.10
2017-10-09T04:17:25.907Z,18.33
2017-10-09T04:19:55.841Z,34.20
2017-10-09T04:22:24.301Z,16.47
2017-10-09T04:24:52.681Z,23.50
2017-10-09T04:27:21.135Z,27.97
2017-10-09T04:29:49.749Z,14.77
2017-10-09T04:32:18.127Z,17.20
2017-10-09T04:34:46.521Z,14.07
2017-10-09T04:37:14.910Z,12.57
2017-10-09T04:39:43.367Z,15.40
2017-10-09T04:42:11.749Z,15.30
2017-10-09T04:44:40.183Z,13.73
2017-10-09T04:47:08.603Z,11.43
2017-10-09T04:49:37.034Z,11.77
2017-10-09T04:52:05.595Z,12.53
2017-10-09T04:54:34.762Z,15.10
2017-10-09T04:57:03.150Z,15.80
2017-10-09T04:59:33.150Z,15.03
2017-10-09T05:02:01.516Z,13.87
2017-10-09T05:04:30.197Z,21.00
2017-10-09T05:06:59.186Z,18.67
2017-10-09T05:09:27.576Z,18.10
2017-10-09T05:11:55.984Z,9.77
2017-10-09T05:14:24.864Z,25.47
2017-10-09T05:16:53.268Z,9.90
2017-10-09T05:19:21.670Z,19.13
2017-10-09T05:21:50.190Z,21.67
2017-10-09T05:24:18.568Z,12.57
2017-10-09T05:26:46.951Z,14.87
2017-10-09T05:29:15.635Z,17.60
2017-10-09T05:31:44.046Z,15.40
2017-10-09T05:34:13.245Z,13.30
2017-10-09T05:36:42.047Z,23.60
2017-10-09T05:39:11.258Z,21.73
2017-10-09T05:41:39.702Z,19.60
2017-10-09T05:44:08.273Z,18.57
2017-10-09T05:46:36.640Z,15.80
2017-10-09T05:49:05.075Z,12.03
2017-10-09T05:51:33.508Z,37.27
2017-10-09T05:54:02.051Z,15.10
2017-10-09T05:56:30.426Z,22.70
2017-10-09T05:58:58.849Z,31.70
2017-10-09T06:01:28.080Z,24.00
2017-10-09T06:03:57.226Z,14.83
2017-10-09T06:06:25.939Z,21.47
2017-10-09T06:08:54.302Z,19.60
2017-10-09T06:11:22.719Z,18.67
2017-10-09T06:13:51.900Z,20.33
2017-10-09T06:16:20.559Z,20.33
2017-10-09T06:18:49.022Z,17.43
2017-10-09T06:21:17.613Z,16.40
2017-10-09T06:23:46.011Z,23.43
2017-10-09T06:26:14.416Z,27.17
2017-10-09T06:28:42.992Z,20.90
2017-10-09T06:31:11.437Z,23.07
2017-10-09T06:33:39.873Z,13.80
2017-10-09T06:36:09.450Z,27.43
2017-10-09T06:38:37.863Z,19.43
2017-10-09T06:41:06.267Z,15.33
2017-10-09T06:43:34.857Z,17.47
2017-10-09T06:46:03.303Z,20.33
2017-10-09T06:48:32.462Z,17.00
2017-10-09T06:51:01.228Z,14.87
2017-10-09T06:53:29.683Z,17.90
2017-10-09T06:55:58.087Z,16.13
2017-10-09T06:58:26.917Z,14.17
2017-10-09T07:00:55.400Z,18.27
2017-10-09T07:03:23.806Z,12.60
2017-10-09T07:05:52.215Z,13.00
2017-10-09T07:08:20.707Z,20.27
2017-10-09T07:10:49.103Z,15.00
2017-10-09T07:13:17.597Z,11.77
2017-10-09T07:15:46.014Z,11.40
2017-10-09T07:18:15.757Z,14.23
2017-10-09T07:20:44.519Z,17.33
2017-10-09T07:23:13.640Z,11.90
2017-10-09T07:25:42.085Z,12.67
2017-10-09T07:28:10.528Z,13.20
2017-10-09T07:30:38.975Z,9.40
2017-10-09T07:33:07.408Z,8.90
2017-10-09T07:35:35.987Z,7.73
2017-10-09T07:38:04.339Z,7.30
2017-10-09T07:40:32.690Z,9.80
2017-10-09T07:43:02.992Z,10.73
2017-10-09T07:45:31.408Z,9.60
2017-10-09T07:48:01.972Z,7.90
2017-10-09T07:50:30.735Z,9.23
2017-10-09T07:52:59.140Z,9.70
2017-10-09T07:55:27.526Z,10.00
2017-10-09T07:57:57.321Z,9.67
2017-10-09T08:00:25.713Z,7.30
2017-10-09T08:02:54.108Z,7.70
2017-10-09T08:05:23.290Z,8.20
2017-10-09T08:07:51.649Z,7.80
2017-10-09T08:10:20.019Z,6.40
2017-10-09T08:12:48.422Z,7.10
2017-10-09T08:15:16.792Z,6.57
2017-10-09T08:17:45.148Z,6.27
2017-10-09T08:20:13.851Z,6.97
2017-10-09T08:22:42.244Z,6.17
2017-10-09T08:25:10.627Z,6.53
2017-10-09T08:27:39.409Z,6.97
2017-10-09T08:30:07.868Z,7.50
2017-10-09T08:32:36.262Z,7.43
2017-10-09T08:35:04.756Z,7.00
2017-10-09T08:37:33.913Z,6.40
2017-10-09T08:40:02.274Z,6.00
2017-10-09T08:42:30.901Z,6.87
2017-10-09T08:44:59.328Z,6.13
2017-10-09T08:47:27.786Z,6.73
2017-10-09T08:49:56.335Z,6.80
2017-10-09T08:52:24.746Z,6.00
2017-10-09T08:54:53.974Z,6.87
2017-10-09T08:57:22.497Z,6.10
2017-10-09T08:59:51.306Z,7.67
2017-10-09T09:02:19.711Z,5.87
2017-10-09T09:04:48.177Z,6.50
2017-10-09T09:07:18.226Z,6.60
2017-10-09T09:09:47.766Z,5.87
2017-10-09T09:12:16.578Z,5.60
2017-10-09T09:14:45.747Z,5.67
2017-10-09T09:17:15.615Z,5.10
2017-10-09T09:19:44.102Z,5.90
2017-10-09T09:22:12.587Z,5.23
2017-10-09T09:24:41.054Z,6.13
2017-10-09T09:27:10.268Z,5.83
2017-10-09T09:29:38.657Z,6.27
2017-10-09T09:32:07.065Z,5.90
2017-10-09T09:34:35.798Z,6.83
2017-10-09T09:37:05.086Z,7.23
2017-10-09T09:39:33.467Z,6.90
2017-10-09T09:42:03.793Z,5.53
2017-10-09T09:44:32.207Z,6.60
2017-10-09T09:47:00.606Z,6.73
2017-10-09T09:49:30.141Z,6.03
2017-10-09T09:51:59.289Z,6.90
2017-10-09T09:54:27.781Z,6.50
2017-10-09T09:56:56.195Z,6.80
2017-10-09T09:59:25.323Z,7.83
2017-10-09T10:01:54.037Z,7.10
2017-10-09T10:04:22.625Z,7.50
2017-10-09T10:06:51.065Z,7.20
2017-10-09T10:09:20.299Z,7.80
2017-10-09T10:11:48.994Z,7.63
2017-10-09T10:14:17.432Z,6.33
2017-10-09T10:16:45.824Z,6.53
2017-10-09T10:19:14.426Z,5.00
2017-10-09T10:21:43.705Z,6.97
2017-10-09T10:24:13.366Z,4.97
2017-10-09T10:26:42.145Z,6.37
2017-10-09T10:29:10.773Z,4.40
2017-10-09T10:31:39.309Z,5.37
2017-10-09T10:34:08.548Z,6.60
2017-10-09T10:36:37.718Z,5.17
2017-10-09T10:39:06.162Z,4.97
2017-10-09T10:41:34.772Z,5.60
2017-10-09T10:44:03.142Z,6.70
2017-10-09T10:46:31.586Z,4.13
2017-10-09T10:49:00.316Z,5.07
2017-10-09T10:51:29.657Z,7.20
2017-10-09T10:54:00.474Z,7.67
2017-10-09T10:56:29.934Z,6.93
2017-10-09T10:58:58.311Z,5.73
2017-10-09T11:01:26.717Z,7.80
2017-10-09T11:03:55.632Z,6.80
2017-10-09T11:06:26.626Z,7.30
2017-10-09T11:08:55.268Z,7.00
2017-10-09T11:11:25.330Z,6.80
2017-10-09T11:13:55.801Z,7.90
2017-10-09T11:16:26.158Z,7.20
2017-10-09T11:18:55.598Z,7.33
2017-10-09T11:21:24.083Z,7.13
2017-10-09T11:23:53.382Z,7.17
2017-10-09T11:26:21.870Z,6.47
2017-10-09T11:28:50.266Z,6.60
2017-10-09T11:31:19.685Z,7.47
2017-10-09T11:33:49.792Z,7.00
2017-10-09T11:36:18.165Z,7.30
2017-10-09T11:38:46.714Z,7.10
2017-10-09T11:41:15.090Z,7.10
2017-10-09T11:43:43.497Z,7.30
2017-10-09T11:46:12.085Z,5.43
2017-10-09T11:48:40.458Z,5.83
2017-10-09T11:51:08.883Z,6.20
2017-10-09T11:53:37.326Z,6.20
2017-10-09T11:56:05.861Z,6.37
2017-10-09T11:58:34.394Z,6.43
2017-10-09T12:01:03.026Z,6.47
2017-10-09T12:03:31.724Z,6.90
2017-10-09T12:06:00.176Z,6.10
2017-10-09T12:08:28.628Z,5.80
2017-10-09T12:10:57.789Z,6.10
2017-10-09T12:13:26.229Z,5.53
2017-10-09T12:15:55.133Z,5.67
2017-10-09T12:18:23.591Z,5.90
2017-10-09T12:20:51.992Z,5.30
2017-10-09T12:23:20.800Z,5.23
2017-10-09T12:25:49.173Z,4.47
2017-10-09T12:28:17.835Z,4.77
2017-10-09T12:30:46.513Z,4.90
2017-10-09T12:33:15.836Z,5.17
2017-10-09T12:35:44.280Z,4.30
2017-10-09T12:38:13.494Z,4.23
2017-10-09T12:40:43.047Z,4.77
2017-10-09T12:43:11.485Z,4.70
2017-10-09T12:45:40.274Z,5.70
2017-10-09T12:48:08.709Z,5.37
2017-10-09T12:50:37.469Z,3.67
2017-10-09T12:53:05.989Z,6.00
2017-10-09T12:55:34.493Z,4.03
2017-10-09T12:58:03.638Z,5.00
2017-10-09T13:00:32.456Z,5.80
2017-10-09T13:03:01.703Z,4.20
2017-10-09T13:05:31.280Z,5.20
2017-10-09T13:08:00.470Z,4.90
2017-10-09T13:10:30.246Z,4.77
2017-10-09T13:12:58.816Z,5.40
2017-10-09T13:15:27.239Z,8.60
2017-10-09T13:17:56.500Z,5.90
2017-10-09T13:20:24.928Z,7.77
2017-10-09T13:22:53.460Z,8.67
2017-10-09T13:25:22.819Z,7.90
2017-10-09T13:27:52.457Z,9.43
2017-10-09T13:30:21.382Z,6.90
2017-10-09T13:32:49.792Z,7.90
2017-10-09T13:35:18.959Z,7.23
2017-10-09T13:37:48.253Z,8.40
2017-10-09T13:40:16.711Z,9.90
2017-10-09T13:42:45.320Z,9.17
2017-10-09T13:45:13.945Z,6.90
2017-10-09T13:47:42.356Z,5.80
2017-10-09T13:50:10.734Z,6.43
2017-10-09T13:52:39.208Z,7.03
2017-10-09T13:55:07.783Z,7.00
2017-10-09T13:57:36.170Z,6.27
2017-10-09T14:00:04.941Z,5.90
2017-10-09T14:02:33.984Z,4.83
2017-10-09T14:05:02.360Z,5.70
2017-10-09T14:07:31.014Z,5.30
2017-10-09T14:09:59.398Z,4.80
2017-10-09T14:12:27.836Z,5.40
2017-10-09T14:14:57.028Z,5.30
2017-10-09T14:17:25.554Z,5.47
2017-10-09T14:19:54.092Z,6.43
2017-10-09T14:22:24.428Z,6.83
2017-10-09T14:24:52.917Z,7.63
2017-10-09T14:27:21.302Z,8.07
2017-10-09T14:29:50.097Z,6.33
2017-10-09T14:39:44.461Z,6.83
2017-10-09T14:42:13.290Z,6.97
2017-10-09T14:44:42.503Z,7.60
2017-10-09T14:47:10.904Z,7.00
2017-10-09T14:49:39.361Z,6.97
2017-10-09T14:52:08.885Z,6.50
2017-10-09T14:54:37.296Z,6.00
2017-10-09T14:57:05.992Z,6.80
2017-10-09T14:59:34.588Z,7.80
2017-10-09T15:02:02.973Z,6.30
2017-10-09T15:04:31.390Z,8.77
2017-10-09T15:06:59.892Z,9.07
2017-10-09T15:09:28.317Z,6.17
2017-10-09T15:11:56.709Z,6.97
2017-10-09T15:14:25.899Z,8.20
2017-10-09T15:16:54.285Z,8.97
2017-10-09T15:19:23.450Z,7.93
2017-10-09T15:21:52.468Z,8.00
2017-10-09T15:24:21.605Z,9.03
2017-10-09T15:26:49.980Z,8.50
2017-10-09T15:29:20.389Z,8.07
2017-10-09T15:31:49.582Z,9.80
2017-10-09T15:34:18.741Z,11.03
2017-10-09T15:36:47.203Z,11.80
2017-10-09T15:39:16.122Z,13.60
2017-10-09T15:41:44.498Z,10.80
2017-10-09T15:44:13.216Z,15.23
2017-10-09T15:46:41.679Z,15.17
2017-10-09T15:49:10.069Z,14.50
2017-10-09T15:51:39.315Z,14.20
2017-10-09T15:54:07.785Z,14.57
2017-10-09T15:56:36.177Z,14.20
2017-10-09T15:59:04.812Z,15.87
2017-10-09T16:01:33.318Z,16.57
2017-10-09T16:04:01.736Z,15.00
2017-10-09T16:06:30.148Z,14.63
2017-10-09T16:08:59.303Z,13.70
2017-10-09T16:11:27.893Z,14.57
2017-10-09T16:13:56.946Z,16.20
2017-10-09T16:16:25.336Z,14.90
2017-10-09T16:18:53.728Z,16.33
2017-10-09T16:21:22.180Z,14.67
2017-10-09T16:23:55.076Z,13.43
2017-10-09T16:26:24.138Z,16.90
2017-10-09T16:28:52.569Z,14.20
2017-10-09T16:31:20.972Z,15.53
2017-10-09T16:33:51.092Z,15.20
2017-10-09T16:36:20.106Z,14.53
2017-10-09T16:38:49.313Z,17.43
2017-10-09T16:41:18.509Z,15.77
2017-10-09T16:43:47.664Z,17.27
2017-10-09T16:46:16.031Z,15.20
2017-10-09T16:48:44.451Z,18.30
2017-10-09T16:51:12.933Z,14.57
2017-10-09T16:53:41.327Z,15.90
2017-10-09T16:56:09.741Z,15.90
2017-10-09T16:58:38.121Z,17.20
2017-10-09T17:01:06.586Z,18.17
2017-10-09T17:03:35.128Z,18.77
2017-10-09T17:06:04.429Z,17.37
2017-10-09T17:08:32.794Z,19.93
2017-10-09T17:11:01.232Z,18.37
2017-10-09T17:13:29.679Z,18.37
2017-10-09T17:15:58.831Z,16.83
2017-10-09T17:18:27.650Z,19.43
2017-10-09T17:20:56.014Z,20.90
2017-10-09T17:23:24.443Z,19.70
2017-10-09T17:25:53.229Z,20.00
2017-10-09T17:28:21.608Z,19.20
2017-10-09T17:30:49.988Z,17.77
2017-10-09T17:33:18.482Z,21.57
2017-10-09T17:35:46.841Z,19.07
2017-10-09T17:38:16.209Z,17.17
2017-10-09T17:40:44.678Z,21.10
2017-10-09T17:43:13.061Z,19.30
2017-10-09T17:45:41.466Z,21.60
2017-10-09T17:48:10.651Z,17.10
2017-10-09T17:50:39.284Z,20.97
2017-10-09T17:53:07.651Z,21.33
2017-10-09T17:55:36.277Z,19.50
2017-10-09T17:58:04.647Z,19.23
2017-10-09T18:00:33.017Z,20.47
2017-10-09T18:03:01.826Z,20.20
2017-10-09T18:05:30.247Z,18.13
2017-10-09T18:07:59.406Z,22.33
2017-10-09T18:10:27.828Z,18.50
2017-10-09T18:12:56.188Z,19.80
2017-10-09T18:15:25.367Z,17.00
2017-10-09T18:17:53.779Z,18.93
2017-10-09T18:20:22.183Z,20.07
2017-10-09T18:22:50.577Z,18.67
2017-10-09T18:25:19.170Z,19.73
2017-10-09T18:27:47.572Z,21.47
2017-10-09T18:30:15.940Z,19.70
2017-10-09T18:32:44.468Z,20.53
2017-10-09T18:35:12.861Z,17.23
2017-10-09T18:37:41.240Z,17.80
2017-10-09T18:40:10.436Z,18.37
2017-10-09T18:42:38.885Z,20.03
2017-10-09T18:45:08.053Z,19.00
2017-10-09T18:47:36.638Z,19.37
2017-10-09T18:50:05.049Z,19.43
2017-10-09T18:52:34.222Z,20.37
2017-10-09T18:55:02.650Z,18.90
2017-10-09T18:57:31.077Z,18.67
2017-10-09T18:59:59.481Z,21.53
2017-10-09T19:02:28.686Z,19.33
2017-10-09T19:04:57.866Z,21.33
2017-10-09T19:07:27.021Z,19.20
2017-10-09T19:09:55.432Z,19.90
2017-10-09T19:12:23.819Z,17.07
2017-10-09T19:14:52.208Z,15.23
2017-10-09T19:17:21.552Z,10.93
2017-10-09T19:19:50.304Z,19.47
2017-10-09T19:22:19.465Z,18.47
2017-10-09T19:24:48.251Z,19.73
2017-10-09T19:27:16.658Z,21.00
2017-10-09T19:29:45.901Z,17.67
2017-10-09T19:32:14.573Z,20.93
2017-10-09T19:34:42.939Z,17.97
2017-10-09T19:37:11.317Z,21.70
2017-10-09T19:39:39.723Z,16.00
2017-10-09T19:42:08.329Z,20.23
2017-10-09T19:44:36.726Z,20.53
2017-10-09T19:47:05.180Z,19.80
2017-10-09T19:49:33.535Z,21.47
2017-10-09T19:52:01.922Z,18.17
2017-10-09T19:54:30.559Z,20.67
2017-10-09T19:56:59.706Z,22.03
2017-10-09T19:59:28.100Z,18.97
2017-10-09T20:01:56.716Z,20.37
2017-10-09T20:04:25.083Z,21.30
2017-10-09T20:06:53.493Z,22.33
2017-10-09T20:09:22.286Z,20.60
2017-10-09T20:11:50.704Z,19.37
2017-10-09T20:14:19.156Z,18.63
2017-10-09T20:16:47.721Z,19.50
2017-10-09T20:19:16.424Z,21.63
2017-10-09T20:21:44.927Z,21.33
2017-10-09T20:24:14.570Z,19.30
2017-10-09T20:26:43.085Z,21.43
2017-10-09T20:29:11.577Z,20.87
2017-10-09T20:31:40.791Z,21.77
2017-10-09T20:34:09.282Z,20.00
2017-10-09T20:36:37.809Z,21.50
2017-10-09T20:39:07.153Z,20.90
2017-10-09T20:41:35.714Z,20.53
2017-10-09T20:44:04.773Z,18.23
2017-10-09T20:46:33.434Z,18.63
2017-10-09T20:49:01.951Z,18.93
2017-10-09T20:51:30.447Z,21.60
2017-10-09T20:53:59.022Z,22.47
2017-10-09T20:56:28.402Z,20.07
2017-10-09T20:58:56.938Z,19.57
2017-10-09T21:01:25.666Z,24.93
2017-10-09T21:03:54.176Z,23.13
2017-10-09T21:06:23.459Z,21.93
2017-10-09T21:08:52.181Z,19.27
2017-10-09T21:11:20.695Z,21.30
2017-10-09T21:13:49.193Z,21.27
2017-10-09T21:16:17.935Z,23.20
2017-10-09T21:18:46.467Z,22.50
2017-10-09T21:21:15.107Z,18.97
2017-10-09T21:23:43.757Z,22.10
2017-10-09T21:26:13.091Z,20.57
2017-10-09T21:28:41.706Z,21.93
2017-10-09T21:31:10.294Z,25.47
2017-10-09T21:33:39.128Z,22.87
2017-10-09T21:36:08.442Z,23.27
2017-10-09T21:38:37.072Z,24.00
2017-10-09T21:41:05.618Z,22.40
2017-10-09T21:43:34.134Z,23.77
2017-10-09T21:46:02.990Z,22.20
2017-10-09T21:48:31.533Z,23.17
2017-10-09T21:51:00.004Z,24.57
2017-10-09T21:53:28.535Z,20.37
2017-10-09T21:55:56.977Z,21.70
2017-10-09T21:58:25.500Z,21.20
2017-10-09T22:00:53.967Z,17.67
2017-10-09T22:03:22.375Z,21.67
2017-10-09T22:05:50.813Z,21.20
2017-10-09T22:08:20.171Z,22.33
2017-10-09T22:10:48.567Z,21.23
2017-10-09T22:13:16.947Z,20.53
2017-10-09T22:15:45.512Z,23.40
2017-10-09T22:18:13.904Z,21.60
2017-10-09T22:20:42.317Z,21.67
2017-10-09T22:23:11.703Z,20.67
2017-10-09T22:25:40.143Z,19.50
2017-10-09T22:28:08.519Z,19.60
2017-10-09T22:30:37.041Z,19.70
2017-10-09T22:33:05.392Z,21.43
2017-10-09T22:35:33.787Z,19.43
2017-10-09T22:38:02.288Z,20.37
2017-10-09T22:40:31.419Z,19.67
2017-10-09T22:42:59.784Z,19.47
2017-10-09T22:45:28.243Z,19.87
2017-10-09T22:47:57.687Z,18.73
2017-10-09T22:50:26.080Z,18.60
2017-10-09T22:52:54.496Z,18.03
2017-10-09T22:55:23.654Z,20.73
2017-10-09T22:57:52.017Z,19.10
2017-10-09T23:00:20.468Z,18.73
2017-10-09T23:02:49.596Z,16.37
2017-10-09T23:05:17.977Z,20.17
2017-10-09T23:07:46.415Z,17.97
2017-10-09T23:10:14.842Z,19.73
2017-10-09T23:12:43.421Z,19.63
2017-10-09T23:15:11.948Z,18.57
2017-10-09T23:17:40.332Z,19.30
2017-10-09T23:20:09.489Z,19.83
2017-10-09T23:22:37.899Z,20.43
2017-10-09T23:25:06.312Z,22.20
2017-10-09T23:27:34.673Z,20.57
2017-10-09T23:30:03.102Z,17.90
2017-10-09T23:32:31.463Z,18.00
2017-10-09T23:34:59.841Z,18.60
2017-10-09T23:37:28.568Z,20.10
2017-10-09T23:39:56.973Z,17.60
2017-10-09T23:42:26.118Z,19.27
2017-10-09T23:44:54.727Z,18.20
2017-10-09T23:47:23.861Z,15.77
2017-10-09T23:49:53.293Z,21.10
2017-10-09T23:52:21.950Z,20.13
2017-10-09T23:54:51.095Z,16.70
2017-10-09T23:57:19.456Z,18.07
2017-10-09T23:59:48.072Z,17.90
